Corona, South Dakota
Current Conditions -  °F | °C
As of 10:34 AM on Sunday 21 Dec 2014 (Local Time) from KVVV Reporting Station
Haze Haze  
Wind Chill: 24°   Ceiling: 600
Heat Index: 32°   Visibility: 3mi
Dew Point: 28°   Wind: 9mph
Humidity: 87%   Direction: 150°SSE
Pressure: 29.72"   Gusts: NA
Location:  45.33°N, 96.76°W
Report Text: KVVV 211634Z AUTO 15008KT 3SM BR OVC006 00/M02 A2972 RMK AO2
Loading
Personal Weather Stations






























Interactive Weather Map New forecast layout! Learn more

10-Day Weather Forecast

Advertisements
Track Severe Weather on mobile